Brilliance Of The Seas — C6SJ5 — position and weather

sailwx.info

Track history (hours):
 
Tides and Currents Weather Stations Pressure Air Temp Water Temp Dewpoint Dewpoint Depression Visibility Wind Speed Wind Dir Waves Ship Positions

Brilliance Of The Seas

Operator: Royal Caribbean Cruises Ltd

Last reported at 2017-Dec-11 16:59 UTC. Time now 2017-Dec-12 08:27 UTC.
Position N 27°57' W 082°27'.

Type: Ship. MMSI: 311361000.

Date/timePositionNaut miles runAvg speedWind from/ knotsBaromVisibWave heightAir tempDewpointWater temp
2017-Dec-11 16:59N 27°57' W 082°27'0 0.0
2017-Dec-11 16:29N 27°57' W 082°27'0 0.0
2017-Dec-11 15:59N 27°57' W 082°27'0 0.0
2017-Dec-11 15:29N 27°57' W 082°27'0 0.0
2017-Dec-11 14:59N 27°57' W 082°27'0 0.0
2017-Dec-11 14:29N 27°57' W 082°27'0 0.0
2017-Dec-11 13:59N 27°57' W 082°27'0 0.0
2017-Dec-11 13:29N 27°57' W 082°27'0 0.0
2017-Dec-11 12:59N 27°57' W 082°27'0 0.0
2017-Dec-11 12:29N 27°57' W 082°27'0 0.0
2017-Dec-11 11:59N 27°57' W 082°27'0 0.0
2017-Dec-11 11:29N 27°57' W 082°27'0 0.8
2017-Dec-11 11:00N 27°56' W 082°27'1 2.9
2017-Dec-11 10:30N 27°55' W 082°27'4 8.3
2017-Dec-11 10:01N 27°51' W 082°27'612.1
2017-Dec-11 09:31N 27°47' W 082°31'58 9.0
2017-Dec-11 03:00N 26°54' W 083°00'157 7.9 330 / 141028.010.8 16.0 24.0
2017-Dec-10 07:00N 24°18' W 082°36'2210.9 360 / 271022.0 5.4 20.018.529.0
2017-Dec-10 05:00N 24°18' W 082°12'21 1.0 360 / 261022.010.8 20.0 26.0
2017-Dec-09 07:00N 24°00' W 082°24'25710.7 190 / 171012.0 5.4 27.025.628.0
2017-Dec-08 07:00N 21°24' W 086°06'4113.7 180 / 101014.0 5.4 27.025.629.0
2017-Dec-08 04:00N 20°54' W 086°36'2711.3 180 / 61015.010.8 26.0 28.0
2017-Dec-08 01:38N 20°36' W 086°57'212.9
2017-Dec-08 01:30N 20°35' W 086°58'510.8
2017-Dec-08 01:00N 20°29' W 086°59'0 0.5
2017-Dec-08 00:27N 20°29' W 086°59'0 0.0
2017-Dec-08 00:00N 20°29' W 086°59'0 0.0
2017-Dec-07 23:30N 20°29' W 086°59'0 0.0
2017-Dec-07 23:00N 20°29' W 086°59'0 0.0
2017-Dec-07 22:30N 20°29' W 086°59'0 0.0
2017-Dec-07 22:00N 20°29' W 086°59'0 0.0
2017-Dec-07 21:30N 20°29' W 086°59'0 0.0
2017-Dec-07 21:00N 20°29' W 086°59'0 0.0
2017-Dec-07 20:30N 20°29' W 086°59'0 0.0
2017-Dec-07 20:01N 20°29' W 086°59'0 0.0
2017-Dec-07 19:31N 20°29' W 086°59'0 0.0
2017-Dec-07 19:00N 20°29' W 086°59'0 0.0
2017-Dec-07 18:30N 20°29' W 086°59'0 0.0
2017-Dec-07 18:01N 20°29' W 086°59'0 0.0
2017-Dec-07 17:31N 20°29' W 086°59'0 0.0
2017-Dec-07 17:01N 20°29' W 086°59'0 0.0
2017-Dec-07 16:30N 20°29' W 086°59'0 0.0
2017-Dec-07 16:00N 20°29' W 086°59'0 0.1
2017-Dec-07 15:30N 20°29' W 086°59'2 3.6
2017-Dec-07 15:00N 20°31' W 086°59'612.1
2017-Dec-07 14:29N 20°36' W 086°55'14519.4
2017-Dec-07 07:00N 20°06' W 084°24'102 4.2 050 / 171016.0 5.4 27.025.628.0
2017-Dec-06 07:00N 20°00' W 082°36'10818.0 060 / 301016.0 5.4 27.025.629.0
2017-Dec-06 01:00N 21°00' W 084°12'33919.9 060 / 261019.0 5.4 25.0 28.0
2017-Dec-05 08:00N 26°36' W 083°24'95 4.4 100 / 241022.010.8 24.0 25.0
2017-Dec-04 10:30N 27°57' W 082°27'1 2.6
2017-Dec-04 10:01N 27°55' W 082°27'3 5.2
2017-Dec-04 09:30N 27°53' W 082°26'612.3
2017-Dec-04 09:00N 27°48' W 082°30'7612.7
2017-Dec-04 03:00N 26°48' W 083°24'30015.8 010 / 111021.0 5.4 23.021.625.0
2017-Dec-03 08:00N 22°18' W 085°48'4811.9 050 / 191019.010.8 26.0 28.0
2017-Dec-03 04:00N 21°36' W 086°12'7315.7 030 / 231019.0 5.4 26.023.229.0
2017-Dec-02 23:19N 20°36' W 086°57'516.6
2017-Dec-02 23:00N 20°31' W 086°59'2 3.9
2017-Dec-02 22:30N 20°29' W 086°59'0 0.0
2017-Dec-02 22:00N 20°29' W 086°59'0 0.0
2017-Dec-02 21:30N 20°29' W 086°59'0 0.0
2017-Dec-02 21:00N 20°29' W 086°59'0 0.0
2017-Dec-02 20:30N 20°29' W 086°59'0 0.0
2017-Dec-02 20:00N 20°29' W 086°59'0 0.0
2017-Dec-02 19:30N 20°29' W 086°59'0 0.0
2017-Dec-02 19:00N 20°29' W 086°59'0 0.0
2017-Dec-02 18:27N 20°29' W 086°59'0 0.0
2017-Dec-02 18:00N 20°29' W 086°59'0 0.0
2017-Dec-02 17:30N 20°29' W 086°59'0 0.0
2017-Dec-02 16:57N 20°29' W 086°59'0 0.0
2017-Dec-02 16:30N 20°29' W 086°59'0 0.0
2017-Dec-02 16:00N 20°29' W 086°59'0 0.0
2017-Dec-02 15:30N 20°29' W 086°59'0 0.0
2017-Dec-02 15:00N 20°29' W 086°59'0 0.0
2017-Dec-02 14:27N 20°29' W 086°59'0 0.0
2017-Dec-02 14:00N 20°29' W 086°59'0 0.0
2017-Dec-02 13:27N 20°29' W 086°59'0 0.0
2017-Dec-02 13:00N 20°29' W 086°59'0 0.8
2017-Dec-02 12:30N 20°29' W 086°59'3 6.4
2017-Dec-02 12:00N 20°33' W 086°59'6913.7
2017-Dec-02 07:00N 21°30' W 086°18'   030 / 161019.010.8 26.0 28.0
Track history (hours):
 
Tides and Currents Weather Stations Pressure Air Temp Water Temp Dewpoint Dewpoint Depression Visibility Wind Speed Wind Dir Waves Ship Positions

Brilliance Of The Seas

Operator: Royal Caribbean Cruises Ltd

Last reported at 2017-Dec-11 16:59 UTC. Time now 2017-Dec-12 08:27 UTC.
Position N 27°57' W 082°27'.

Type: Ship. MMSI: 311361000.

Date/timePositionNaut miles runAvg speedWind from/ knotsBaromVisibWave heightAir tempDewpointWater temp
2017-Dec-11 16:59N 27°57' W 082°27'0 0.0
2017-Dec-11 16:29N 27°57' W 082°27'0 0.0
2017-Dec-11 15:59N 27°57' W 082°27'0 0.0
2017-Dec-11 15:29N 27°57' W 082°27'0 0.0
2017-Dec-11 14:59N 27°57' W 082°27'0 0.0
2017-Dec-11 14:29N 27°57' W 082°27'0 0.0
2017-Dec-11 13:59N 27°57' W 082°27'0 0.0
2017-Dec-11 13:29N 27°57' W 082°27'0 0.0
2017-Dec-11 12:59N 27°57' W 082°27'0 0.0
2017-Dec-11 12:29N 27°57' W 082°27'0 0.0
2017-Dec-11 11:59N 27°57' W 082°27'0 0.0
2017-Dec-11 11:29N 27°57' W 082°27'0 0.8
2017-Dec-11 11:00N 27°56' W 082°27'1 2.9
2017-Dec-11 10:30N 27°55' W 082°27'4 8.3
2017-Dec-11 10:01N 27°51' W 082°27'612.1
2017-Dec-11 09:31N 27°47' W 082°31'58 9.0
2017-Dec-11 03:00N 26°54' W 083°00'157 7.9 330 / 141028.010.8 16.0 24.0
2017-Dec-10 07:00N 24°18' W 082°36'2210.9 360 / 271022.0 5.4 20.018.529.0
2017-Dec-10 05:00N 24°18' W 082°12'21 1.0 360 / 261022.010.8 20.0 26.0
2017-Dec-09 07:00N 24°00' W 082°24'25710.7 190 / 171012.0 5.4 27.025.628.0
2017-Dec-08 07:00N 21°24' W 086°06'4113.7 180 / 101014.0 5.4 27.025.629.0
2017-Dec-08 04:00N 20°54' W 086°36'2711.3 180 / 61015.010.8 26.0 28.0
2017-Dec-08 01:38N 20°36' W 086°57'212.9
2017-Dec-08 01:30N 20°35' W 086°58'510.8
2017-Dec-08 01:00N 20°29' W 086°59'0 0.5
2017-Dec-08 00:27N 20°29' W 086°59'0 0.0
2017-Dec-08 00:00N 20°29' W 086°59'0 0.0
2017-Dec-07 23:30N 20°29' W 086°59'0 0.0
2017-Dec-07 23:00N 20°29' W 086°59'0 0.0
2017-Dec-07 22:30N 20°29' W 086°59'0 0.0
2017-Dec-07 22:00N 20°29' W 086°59'0 0.0
2017-Dec-07 21:30N 20°29' W 086°59'0 0.0
2017-Dec-07 21:00N 20°29' W 086°59'0 0.0
2017-Dec-07 20:30N 20°29' W 086°59'0 0.0
2017-Dec-07 20:01N 20°29' W 086°59'0 0.0
2017-Dec-07 19:31N 20°29' W 086°59'0 0.0
2017-Dec-07 19:00N 20°29' W 086°59'0 0.0
2017-Dec-07 18:30N 20°29' W 086°59'0 0.0
2017-Dec-07 18:01N 20°29' W 086°59'0 0.0
2017-Dec-07 17:31N 20°29' W 086°59'0 0.0
2017-Dec-07 17:01N 20°29' W 086°59'0 0.0
2017-Dec-07 16:30N 20°29' W 086°59'0 0.0
2017-Dec-07 16:00N 20°29' W 086°59'0 0.1
2017-Dec-07 15:30N 20°29' W 086°59'2 3.6
2017-Dec-07 15:00N 20°31' W 086°59'612.1
2017-Dec-07 14:29N 20°36' W 086°55'14519.4
2017-Dec-07 07:00N 20°06' W 084°24'102 4.2 050 / 171016.0 5.4 27.025.628.0
2017-Dec-06 07:00N 20°00' W 082°36'10818.0 060 / 301016.0 5.4 27.025.629.0
2017-Dec-06 01:00N 21°00' W 084°12'33919.9 060 / 261019.0 5.4 25.0 28.0
2017-Dec-05 08:00N 26°36' W 083°24'95 4.4 100 / 241022.010.8 24.0 25.0
2017-Dec-04 10:30N 27°57' W 082°27'1 2.6
2017-Dec-04 10:01N 27°55' W 082°27'3 5.2
2017-Dec-04 09:30N 27°53' W 082°26'612.3
2017-Dec-04 09:00N 27°48' W 082°30'7612.7
2017-Dec-04 03:00N 26°48' W 083°24'30015.8 010 / 111021.0 5.4 23.021.625.0
2017-Dec-03 08:00N 22°18' W 085°48'4811.9 050 / 191019.010.8 26.0 28.0
2017-Dec-03 04:00N 21°36' W 086°12'7315.7 030 / 231019.0 5.4 26.023.229.0
2017-Dec-02 23:19N 20°36' W 086°57'516.6
2017-Dec-02 23:00N 20°31' W 086°59'2 3.9
2017-Dec-02 22:30N 20°29' W 086°59'0 0.0
2017-Dec-02 22:00N 20°29' W 086°59'0 0.0
2017-Dec-02 21:30N 20°29' W 086°59'0 0.0
2017-Dec-02 21:00N 20°29' W 086°59'0 0.0
2017-Dec-02 20:30N 20°29' W 086°59'0 0.0
2017-Dec-02 20:00N 20°29' W 086°59'0 0.0
2017-Dec-02 19:30N 20°29' W 086°59'0 0.0
2017-Dec-02 19:00N 20°29' W 086°59'0 0.0
2017-Dec-02 18:27N 20°29' W 086°59'0 0.0
2017-Dec-02 18:00N 20°29' W 086°59'0 0.0
2017-Dec-02 17:30N 20°29' W 086°59'0 0.0
2017-Dec-02 16:57N 20°29' W 086°59'0 0.0
2017-Dec-02 16:30N 20°29' W 086°59'0 0.0
2017-Dec-02 16:00N 20°29' W 086°59'0 0.0
2017-Dec-02 15:30N 20°29' W 086°59'0 0.0
2017-Dec-02 15:00N 20°29' W 086°59'0 0.0
2017-Dec-02 14:27N 20°29' W 086°59'0 0.0
2017-Dec-02 14:00N 20°29' W 086°59'0 0.0
2017-Dec-02 13:27N 20°29' W 086°59'0 0.0
2017-Dec-02 13:00N 20°29' W 086°59'0 0.8
2017-Dec-02 12:30N 20°29' W 086°59'3 6.4
2017-Dec-02 12:00N 20°33' W 086°59'6913.7
2017-Dec-02 07:00N 21°30' W 086°18'   030 / 161019.010.8 26.0 28.0

Dump ship's entire track history